Date,TemperatureHighF,TemperatureAvgF,TemperatureLowF,DewpointHighF,DewpointAvgF,DewpointLowF,HumidityHigh,HumidityAvg,HumidityLow,PressureMaxIn,PressureMinIn,WindSpeedMaxMPH,WindSpeedAvgMPH,GustSpeedMaxMPH,PrecipitationSumIn
2013-8-1,91,77,72,78,73,70,97,89,55,30.11,30.01,1,0,0,0.02
2013-8-2,92,80,71,76,73,70,97,80,55,30.08,29.99,4,0,0,0.00
2013-8-3,91,80,73,78,75,71,97,85,62,30.12,30.03,5,0,0,0.12
2013-8-4,88,78,74,81,76,72,97,93,73,30.12,30.01,2,0,0,0.60
2013-8-5,96,80,74,81,76,73,97,89,59,30.05,29.95,3,0,0,2.00
2013-8-6,91,80,72,79,76,72,98,87,67,30.02,29.94,1,0,0,0.00
2013-8-7,90,80,75,80,76,74,97,88,65,30.03,29.96,5,0,0,0.02
2013-8-8,91,82,75,78,76,73,97,83,57,30.09,30.00,3,0,0,0.00
2013-8-9,91,82,75,80,76,73,96,83,62,30.12,30.02,4,0,0,0.08
2013-8-10,94,81,73,82,76,72,97,85,58,30.17,30.09,3,0,0,0.22
2013-8-11,96,83,73,79,76,72,97,80,50,30.20,30.11,2,0,0,0.00
2013-8-12,94,83,73,79,75,72,97,80,58,30.17,30.03,2,0,0,0.00
2013-8-13,97,82,74,79,75,72,96,81,52,30.09,29.96,2,0,0,0.01
2013-8-14,98,80,73,79,75,71,97,87,50,30.05,29.91,5,0,0,1.07
2013-8-15,95,82,73,79,75,72,97,81,49,30.08,29.95,3,0,0,0.00
2013-8-16,91,81,76,80,76,73,96,87,60,30.10,30.00,1,0,0,0.00
2013-8-17,92,79,74,80,76,73,97,91,66,30.14,30.03,3,0,0,0.34
2013-8-18,90,80,75,80,77,74,98,90,65,30.14,30.07,5,0,0,0.09
2013-8-19,93,79,74,80,76,72,97,91,61,30.13,30.02,3,0,0,0.55
2013-8-20,92,81,73,80,75,72,98,85,58,30.15,30.05,5,0,0,0.01
2013-8-21,88,77,71,79,76,70,97,94,73,30.18,30.09,5,0,0,2.35
2013-8-22,90,78,74,80,76,72,98,93,68,30.14,30.04,5,0,0,1.02
2013-8-23,87,76,71,80,75,70,98,95,77,30.08,30.02,1,0,0,1.00
2013-8-24,89,77,72,79,75,71,98,93,71,30.17,30.05,7,0,0,0.04
2013-8-25,86,79,74,78,75,73,98,89,70,30.21,30.13,2,0,0,0.01
2013-8-26,88,78,72,79,74,71,97,89,67,30.19,30.08,7,0,0,0.53
2013-8-27,87,78,71,76,72,69,98,84,60,30.12,30.04,6,0,0,0.01
2013-8-28,90,78,67,74,70,66,97,78,52,30.11,30.02,3,0,0,0.00
2013-8-29,94,81,70,76,72,69,97,77,51,30.08,29.95,1,0,0,0.00
2013-8-30,96,82,72,78,74,71,97,78,48,30.02,29.91,2,0,0,0.02
2013-8-31,93,80,70,78,74,68,96,82,54,30.01,29.92,4,0,0,0.81